createdAt,value
2023-03-23T00:00:35.000Z,13.4
2023-03-23T00:01:52.000Z,13.3
2023-03-23T00:03:08.000Z,13.4
2023-03-23T00:04:24.000Z,13.1
2023-03-23T00:05:39.000Z,13.2
2023-03-23T00:06:55.000Z,13.4
2023-03-23T00:08:12.000Z,13.2
2023-03-23T00:09:28.000Z,13.3
2023-03-23T00:10:44.000Z,13.4
2023-03-23T00:12:00.000Z,13.3
2023-03-23T00:13:16.000Z,13.3
2023-03-23T00:14:32.000Z,13.5
2023-03-23T00:15:49.000Z,13.4
2023-03-23T00:17:05.000Z,13.5
2023-03-23T00:18:21.000Z,13.5
2023-03-23T00:19:37.000Z,13.6
2023-03-23T00:20:53.000Z,13.5
2023-03-23T00:22:09.000Z,13.5
2023-03-23T00:23:25.000Z,13.5
2023-03-23T00:24:41.000Z,13.4
2023-03-23T00:25:57.000Z,13.5
2023-03-23T00:27:13.000Z,13.7
2023-03-23T00:28:30.000Z,13.5
2023-03-23T00:29:46.000Z,13.4
2023-03-23T00:31:02.000Z,13.5
2023-03-23T00:32:18.000Z,13.5
2023-03-23T00:33:34.000Z,13.4
2023-03-23T00:34:51.000Z,13.4
2023-03-23T00:36:07.000Z,13.5
2023-03-23T00:37:23.000Z,13.5
2023-03-23T00:38:38.000Z,13.7
2023-03-23T00:39:54.000Z,13.6
2023-03-23T00:41:10.000Z,13.5
2023-03-23T00:42:27.000Z,13.7
2023-03-23T00:43:43.000Z,13.7
2023-03-23T00:44:59.000Z,13.7
2023-03-23T00:46:15.000Z,13.7
2023-03-23T00:47:31.000Z,13.8
2023-03-23T00:48:48.000Z,13.7
2023-03-23T00:50:04.000Z,13.7
2023-03-23T00:51:20.000Z,13.6
2023-03-23T00:52:36.000Z,13.7
2023-03-23T00:53:52.000Z,13.7
2023-03-23T00:55:08.000Z,13.7
2023-03-23T00:56:24.000Z,13.8
2023-03-23T00:57:40.000Z,13.7
2023-03-23T00:58:56.000Z,13.7
2023-03-23T01:00:12.000Z,13.7
2023-03-23T01:01:29.000Z,13.7
2023-03-23T01:02:45.000Z,13.7
2023-03-23T01:04:01.000Z,13.6
2023-03-23T01:05:17.000Z,13.9
2023-03-23T01:06:33.000Z,13.9
2023-03-23T01:07:49.000Z,13.9
2023-03-23T01:09:06.000Z,13.8
2023-03-23T01:10:22.000Z,13.9
2023-03-23T01:11:37.000Z,13.9
2023-03-23T01:12:53.000Z,13.8
2023-03-23T01:14:09.000Z,14
2023-03-23T01:15:26.000Z,14
2023-03-23T01:16:42.000Z,13.9
2023-03-23T01:17:58.000Z,14
2023-03-23T01:19:14.000Z,13.9
2023-03-23T01:20:30.000Z,14
2023-03-23T01:21:47.000Z,14
2023-03-23T01:23:03.000Z,13.9
2023-03-23T01:24:19.000Z,13.8
2023-03-23T01:25:35.000Z,13.9
2023-03-23T01:26:51.000Z,14
2023-03-23T01:28:07.000Z,13.9
2023-03-23T01:29:23.000Z,13.9
2023-03-23T01:30:39.000Z,13.9
2023-03-23T01:31:55.000Z,13.8
2023-03-23T01:33:11.000Z,13.9
2023-03-23T01:34:27.000Z,14
2023-03-23T01:35:44.000Z,13.9
2023-03-23T01:36:59.000Z,14.2
2023-03-23T01:38:15.000Z,14
2023-03-23T01:39:31.000Z,13.9
2023-03-23T01:40:47.000Z,14
2023-03-23T01:42:04.000Z,14
2023-03-23T01:43:20.000Z,14
2023-03-23T01:44:36.000Z,13.9
2023-03-23T01:45:52.000Z,14
2023-03-23T01:47:08.000Z,14.1
2023-03-23T01:48:25.000Z,14.1
2023-03-23T01:49:41.000Z,14.1
2023-03-23T01:50:57.000Z,14.2
2023-03-23T01:52:13.000Z,14.1
2023-03-23T01:53:28.000Z,14.1
2023-03-23T01:54:45.000Z,14.2
2023-03-23T01:56:01.000Z,14
2023-03-23T01:57:17.000Z,14.3
2023-03-23T01:58:33.000Z,14.2
2023-03-23T01:59:49.000Z,14.3
2023-03-23T02:01:05.000Z,14.3
2023-03-23T02:02:22.000Z,14.3
2023-03-23T02:03:38.000Z,14.3
2023-03-23T02:04:54.000Z,14.3
2023-03-23T02:06:10.000Z,14.4
2023-03-23T02:07:26.000Z,14.5
2023-03-23T02:08:43.000Z,14.4
2023-03-23T02:09:58.000Z,14.5
2023-03-23T02:11:14.000Z,14.4
2023-03-23T02:12:30.000Z,14.2
2023-03-23T02:13:46.000Z,14.2
2023-03-23T02:15:03.000Z,14.4
2023-03-23T02:16:19.000Z,14.3
2023-03-23T02:17:35.000Z,14.4
2023-03-23T02:18:51.000Z,14.3
2023-03-23T02:20:07.000Z,14.5
2023-03-23T02:21:24.000Z,14.5
2023-03-23T02:22:40.000Z,14.5
2023-03-23T02:23:56.000Z,14.5
2023-03-23T02:25:12.000Z,14.5
2023-03-23T02:26:27.000Z,14.5
2023-03-23T02:27:43.000Z,14.5
2023-03-23T02:29:00.000Z,14.5
2023-03-23T02:30:16.000Z,14.4
2023-03-23T02:31:32.000Z,14.5
2023-03-23T02:32:48.000Z,14.5
2023-03-23T02:34:04.000Z,14.5
2023-03-23T02:35:21.000Z,14.5
2023-03-23T02:36:37.000Z,14.6
2023-03-23T02:37:53.000Z,14.6
2023-03-23T02:39:09.000Z,14.5
2023-03-23T02:40:25.000Z,14.7
2023-03-23T02:41:42.000Z,14.6
2023-03-23T02:42:57.000Z,14.7
2023-03-23T02:44:13.000Z,14.7
2023-03-23T02:45:29.000Z,14.7
2023-03-23T02:46:45.000Z,14.7
2023-03-23T02:48:02.000Z,14.6
2023-03-23T02:49:18.000Z,14.5
2023-03-23T02:50:34.000Z,14.8
2023-03-23T02:51:50.000Z,14.7
2023-03-23T02:53:06.000Z,14.6
2023-03-23T02:54:22.000Z,14.5
2023-03-23T02:55:39.000Z,14.6
2023-03-23T02:56:55.000Z,14.6
2023-03-23T02:58:11.000Z,14.7
2023-03-23T02:59:26.000Z,14.6
2023-03-23T03:00:42.000Z,14.6
2023-03-23T03:01:59.000Z,14.9
2023-03-23T03:03:15.000Z,14.8
2023-03-23T03:04:31.000Z,14.7
2023-03-23T03:05:47.000Z,14.6
2023-03-23T03:07:03.000Z,14.6
2023-03-23T03:08:20.000Z,14.8
2023-03-23T03:09:36.000Z,14.7
2023-03-23T03:10:52.000Z,15
2023-03-23T03:12:08.000Z,14.9
2023-03-23T03:13:24.000Z,14.8
2023-03-23T03:14:41.000Z,14.8
2023-03-23T03:15:57.000Z,14.8
2023-03-23T03:17:12.000Z,14.7
2023-03-23T03:18:28.000Z,14.6
2023-03-23T03:19:44.000Z,14.7
2023-03-23T03:21:00.000Z,14.7
2023-03-23T03:22:17.000Z,14.7
2023-03-23T03:23:33.000Z,14.6
2023-03-23T03:24:49.000Z,14.6
2023-03-23T03:26:05.000Z,14.8
2023-03-23T03:27:21.000Z,14.6
2023-03-23T03:28:38.000Z,14.6
2023-03-23T03:29:54.000Z,14.7
2023-03-23T03:31:10.000Z,14.7
2023-03-23T03:32:26.000Z,14.8
2023-03-23T03:33:42.000Z,14.8
2023-03-23T03:34:58.000Z,14.5
2023-03-23T03:36:14.000Z,14.5
2023-03-23T03:37:30.000Z,14.6
2023-03-23T03:38:46.000Z,14.6
2023-03-23T03:40:02.000Z,14.6
2023-03-23T03:41:19.000Z,14.5
2023-03-23T03:42:35.000Z,14.5
2023-03-23T03:43:51.000Z,14.6
2023-03-23T03:45:07.548Z,14.5
2023-03-23T03:46:23.000Z,14.5
2023-03-23T03:47:39.000Z,14.6
2023-03-23T03:48:56.000Z,14.5
2023-03-23T03:50:12.000Z,14.6
2023-03-23T03:51:27.000Z,14.6
2023-03-23T03:52:43.000Z,14.4
2023-03-23T03:53:59.904Z,14.5
2023-03-23T03:55:16.000Z,14.6
2023-03-23T03:56:32.275Z,14.5
2023-03-23T03:57:48.000Z,14.4
2023-03-23T03:59:04.000Z,14.5
2023-03-23T04:00:20.000Z,14.6
2023-03-23T04:01:37.000Z,14.6
2023-03-23T04:02:53.000Z,14.6
2023-03-23T04:04:09.000Z,14.5
2023-03-23T04:05:25.000Z,14.5
2023-03-23T04:06:41.000Z,14.6
2023-03-23T04:07:57.000Z,14.7
2023-03-23T04:09:13.000Z,14.8
2023-03-23T04:10:29.000Z,14.9
2023-03-23T04:11:45.000Z,14.6
2023-03-23T04:13:01.000Z,14.6
2023-03-23T04:14:18.000Z,14.7
2023-03-23T04:15:34.000Z,14.5
2023-03-23T04:16:50.000Z,14.7
2023-03-23T04:18:06.000Z,14.6
2023-03-23T04:19:22.000Z,14.7
2023-03-23T04:20:38.000Z,14.5
2023-03-23T04:21:55.000Z,14.7
2023-03-23T04:23:11.000Z,14.6
2023-03-23T04:24:27.000Z,14.6
2023-03-23T04:25:42.000Z,14.7
2023-03-23T04:26:58.000Z,14.7
2023-03-23T04:28:15.000Z,14.8
2023-03-23T04:29:31.000Z,14.8
2023-03-23T04:30:47.000Z,14.8
2023-03-23T04:32:03.000Z,14.9
2023-03-23T04:33:19.000Z,14.8
2023-03-23T04:34:36.000Z,14.6
2023-03-23T04:35:52.000Z,14.8
2023-03-23T04:37:08.000Z,14.7
2023-03-23T04:38:24.000Z,14.6
2023-03-23T04:39:40.000Z,14.8
2023-03-23T04:40:57.000Z,14.7
2023-03-23T04:42:12.000Z,14.6
2023-03-23T04:43:28.000Z,14.7
2023-03-23T04:44:44.000Z,14.6
2023-03-23T04:46:00.000Z,14.9
2023-03-23T04:47:17.000Z,14.8
2023-03-23T04:48:33.000Z,14.8
2023-03-23T04:49:49.000Z,14.9
2023-03-23T04:51:05.000Z,14.9
2023-03-23T04:52:21.000Z,14.9
2023-03-23T04:53:37.000Z,14.7
2023-03-23T04:54:54.000Z,14.8
2023-03-23T04:56:10.000Z,14.9
2023-03-23T04:57:26.000Z,14.6
2023-03-23T04:58:41.000Z,14.8
2023-03-23T04:59:57.000Z,14.6
2023-03-23T05:01:14.000Z,14.7
2023-03-23T05:02:30.000Z,14.6
2023-03-23T05:03:46.000Z,14.8
2023-03-23T05:05:02.000Z,14.7
2023-03-23T05:06:18.000Z,14.7
2023-03-23T05:07:35.000Z,14.7
2023-03-23T05:08:51.000Z,14.7
2023-03-23T05:10:07.000Z,14.6
2023-03-23T05:11:23.000Z,14.8
2023-03-23T05:12:39.000Z,14.8
2023-03-23T05:13:56.000Z,14.8
2023-03-23T05:15:11.000Z,14.8
2023-03-23T05:16:27.000Z,14.7
2023-03-23T05:17:43.000Z,14.7
2023-03-23T05:18:59.000Z,14.8
2023-03-23T05:20:15.000Z,14.9
2023-03-23T05:21:32.000Z,14.9
2023-03-23T05:22:48.000Z,14.8
2023-03-23T05:24:04.000Z,14.8
2023-03-23T05:25:20.000Z,14.9
2023-03-23T05:26:36.000Z,14.6
2023-03-23T05:27:53.000Z,14.8
2023-03-23T05:29:09.000Z,14.9
2023-03-23T05:30:25.000Z,14.9
2023-03-23T05:31:40.000Z,14.9
2023-03-23T05:32:56.000Z,14.8
2023-03-23T05:34:13.000Z,14.8
2023-03-23T05:35:29.000Z,14.8
2023-03-23T05:36:45.000Z,14.9
2023-03-23T05:38:01.000Z,14.7
2023-03-23T05:39:17.000Z,14.7
2023-03-23T05:40:34.000Z,14.5
2023-03-23T05:41:50.000Z,14.7
2023-03-23T05:43:06.000Z,14.9
2023-03-23T05:44:22.000Z,14.8
2023-03-23T05:45:38.000Z,14.7
2023-03-23T05:46:54.000Z,14.8
2023-03-23T05:48:10.000Z,14.7
2023-03-23T05:49:26.000Z,14.8
2023-03-23T05:50:42.000Z,15
2023-03-23T05:51:57.000Z,14.9
2023-03-23T05:53:13.000Z,15
2023-03-23T05:54:30.000Z,14.9
2023-03-23T05:55:46.000Z,14.8
2023-03-23T05:57:02.000Z,14.9
2023-03-23T05:58:18.000Z,15
2023-03-23T05:59:34.000Z,14.9
2023-03-23T06:00:51.000Z,14.9
2023-03-23T06:02:07.000Z,14.8
2023-03-23T06:03:23.000Z,14.9
2023-03-23T06:04:39.000Z,14.9
2023-03-23T06:05:55.000Z,14.9
2023-03-23T06:07:12.000Z,15.1
2023-03-23T06:08:27.000Z,15.1
2023-03-23T06:09:43.000Z,15.2
2023-03-23T06:10:59.000Z,15.1
2023-03-23T06:12:15.000Z,14.9
2023-03-23T06:13:32.000Z,15
2023-03-23T06:14:48.000Z,15.2
2023-03-23T06:16:04.000Z,15.1
2023-03-23T06:17:20.000Z,15
2023-03-23T06:18:36.000Z,15.2
2023-03-23T06:19:53.000Z,15.1
2023-03-23T06:21:09.000Z,15
2023-03-23T06:22:25.000Z,15
2023-03-23T06:23:41.000Z,15.1
2023-03-23T06:24:56.000Z,15.4
2023-03-23T06:26:12.000Z,15.3
2023-03-23T06:27:29.000Z,15.3
2023-03-23T06:28:45.000Z,15.1
2023-03-23T06:30:01.000Z,15.1
2023-03-23T06:31:17.000Z,15.1
2023-03-23T06:32:33.000Z,15
2023-03-23T06:33:50.000Z,15.1
2023-03-23T06:35:06.000Z,15.2
2023-03-23T06:36:22.000Z,15.3
2023-03-23T06:37:38.000Z,15.2
2023-03-23T06:38:54.000Z,15.2
2023-03-23T06:40:11.000Z,15.3
2023-03-23T06:41:26.000Z,15.3
2023-03-23T06:42:42.000Z,15.2
2023-03-23T06:43:58.000Z,15.2
2023-03-23T06:45:14.000Z,15.2
2023-03-23T06:46:31.000Z,15.4
2023-03-23T06:47:47.000Z,15.2
2023-03-23T06:49:03.000Z,15.3
2023-03-23T06:50:19.000Z,15.3
2023-03-23T06:51:35.000Z,15.2
2023-03-23T06:52:51.000Z,15.2
2023-03-23T06:54:08.000Z,15.3
2023-03-23T06:55:24.000Z,15.2
2023-03-23T06:56:40.000Z,15.3
2023-03-23T06:57:55.000Z,15.3
2023-03-23T06:59:11.000Z,15.5
2023-03-23T07:00:28.000Z,15.7
2023-03-23T07:01:44.000Z,15.7
2023-03-23T07:03:00.000Z,15.4
2023-03-23T07:04:16.000Z,15.3
2023-03-23T07:05:32.000Z,15.5
2023-03-23T07:06:49.000Z,15.5
2023-03-23T07:08:05.000Z,15.4
2023-03-23T07:09:21.000Z,15.5
2023-03-23T07:10:37.000Z,15.4
2023-03-23T07:11:53.000Z,15.5
2023-03-23T07:13:10.000Z,15.4
2023-03-23T07:14:25.000Z,15.6
2023-03-23T07:15:41.000Z,15.5
2023-03-23T07:16:57.000Z,15.3
2023-03-23T07:18:13.000Z,15.5
2023-03-23T07:19:30.000Z,15.5
2023-03-23T07:20:46.000Z,15.3
2023-03-23T07:22:02.000Z,15.3
2023-03-23T07:23:18.000Z,15.4
2023-03-23T07:24:34.000Z,15.4
2023-03-23T07:25:50.000Z,15.4
2023-03-23T07:27:07.000Z,15.3
2023-03-23T07:28:23.000Z,15.5
2023-03-23T07:29:39.000Z,15.3
2023-03-23T07:30:54.000Z,15.1
2023-03-23T07:32:10.000Z,15
2023-03-23T07:33:27.000Z,15.1
2023-03-23T07:34:43.000Z,15.1
2023-03-23T07:35:59.000Z,14.9
2023-03-23T07:37:15.000Z,15.1
2023-03-23T07:38:31.000Z,15.1
2023-03-23T07:39:48.000Z,15.4
2023-03-23T07:41:04.000Z,15.3
2023-03-23T07:42:20.000Z,15.3
2023-03-23T07:43:36.000Z,15.4
2023-03-23T07:44:52.000Z,15.2
2023-03-23T07:46:09.000Z,15.3
2023-03-23T07:47:24.000Z,15.4
2023-03-23T07:48:40.000Z,15.2
2023-03-23T07:49:56.000Z,15.1
2023-03-23T07:51:12.000Z,15
2023-03-23T07:52:28.000Z,15.1
2023-03-23T07:53:45.000Z,14.8
2023-03-23T07:55:01.000Z,14.9
2023-03-23T07:56:17.000Z,15.1
2023-03-23T07:57:33.000Z,15.1
2023-03-23T07:58:49.000Z,15.2
2023-03-23T08:00:06.000Z,15.3
2023-03-23T08:01:22.000Z,15.2
2023-03-23T08:02:38.000Z,15.5
2023-03-23T08:03:53.000Z,15.3
2023-03-23T08:05:09.000Z,15.3
2023-03-23T08:06:26.000Z,15.2
2023-03-23T08:07:42.000Z,15.1
2023-03-23T08:08:58.000Z,15.1
2023-03-23T08:10:14.000Z,15.4
2023-03-23T08:11:30.000Z,15.5
2023-03-23T08:12:47.000Z,15.6
2023-03-23T08:14:03.000Z,15.3
2023-03-23T08:15:19.000Z,15.6
2023-03-23T08:16:35.000Z,15.4
2023-03-23T08:17:51.000Z,15.4
2023-03-23T08:19:07.000Z,15.6
2023-03-23T08:20:23.000Z,15.7
2023-03-23T08:21:39.000Z,15.6
2023-03-23T08:22:55.000Z,15.6
2023-03-23T08:24:11.000Z,15.8
2023-03-23T08:25:27.000Z,15.9
2023-03-23T08:26:44.000Z,15.9
2023-03-23T08:28:00.000Z,15.4
2023-03-23T08:29:16.000Z,15.7
2023-03-23T08:30:32.000Z,15.7
2023-03-23T08:31:48.000Z,15.4
2023-03-23T08:33:05.000Z,15.9
2023-03-23T08:34:21.000Z,15.7
2023-03-23T08:35:37.000Z,15.3
2023-03-23T08:36:52.000Z,15.4
2023-03-23T08:38:08.000Z,15.4
2023-03-23T08:39:25.000Z,15.6
2023-03-23T08:40:41.000Z,15.6
2023-03-23T08:41:57.000Z,15.8
2023-03-23T08:43:13.000Z,15.9
2023-03-23T08:44:29.000Z,15.9
2023-03-23T08:45:46.000Z,15.9
2023-03-23T08:47:02.000Z,15.6
2023-03-23T08:48:18.000Z,15.9
2023-03-23T08:49:34.000Z,15.7
2023-03-23T08:50:50.000Z,15.5
2023-03-23T08:52:06.000Z,15.4
2023-03-23T08:53:22.000Z,15.5
2023-03-23T08:54:38.000Z,15.3
2023-03-23T08:55:54.000Z,14.9
2023-03-23T08:57:10.000Z,15.1
2023-03-23T08:58:26.000Z,15
2023-03-23T08:59:43.000Z,15.3
2023-03-23T09:00:59.000Z,15.1
2023-03-23T09:02:15.000Z,15.2
2023-03-23T09:03:31.000Z,15.4
2023-03-23T09:04:47.000Z,15.5
2023-03-23T09:06:04.000Z,15.4
2023-03-23T09:07:20.000Z,15.6
2023-03-23T09:08:36.000Z,15.6
2023-03-23T09:09:51.000Z,15.3
2023-03-23T09:11:07.000Z,14.9
2023-03-23T09:12:24.000Z,14.9
2023-03-23T09:13:40.000Z,14.6
2023-03-23T09:14:56.000Z,14.6
2023-03-23T09:16:12.000Z,14.4
2023-03-23T09:17:28.000Z,14.2
2023-03-23T09:18:45.000Z,14.3
2023-03-23T09:20:01.000Z,14.2
2023-03-23T09:21:17.000Z,14.2
2023-03-23T09:22:33.000Z,14.3
2023-03-23T09:23:49.000Z,14.5
2023-03-23T09:25:05.000Z,14.5
2023-03-23T09:26:21.000Z,14.8
2023-03-23T09:27:37.000Z,14.7
2023-03-23T09:28:53.000Z,14.6
2023-03-23T09:30:09.000Z,14.8
2023-03-23T09:31:25.000Z,14.9
2023-03-23T09:32:42.000Z,14.5
2023-03-23T09:33:58.000Z,14.6
2023-03-23T09:35:14.000Z,14.7
2023-03-23T09:36:30.000Z,14.8
2023-03-23T09:37:46.000Z,14.6
2023-03-23T09:39:03.000Z,14.4
2023-03-23T09:40:19.000Z,14.4
2023-03-23T09:41:35.000Z,14.4
2023-03-23T09:42:50.000Z,14.5
2023-03-23T09:44:06.000Z,14.4
2023-03-23T09:45:23.000Z,14.5
2023-03-23T09:46:39.000Z,14.4
2023-03-23T09:47:55.000Z,14.2
2023-03-23T09:49:11.000Z,14
2023-03-23T09:50:27.000Z,13.9
2023-03-23T09:51:43.000Z,13.2
2023-03-23T09:53:00.000Z,13.2
2023-03-23T09:54:16.000Z,12.8
2023-03-23T09:55:32.000Z,12.6
2023-03-23T09:56:48.000Z,12.4
2023-03-23T09:58:04.000Z,12.4
2023-03-23T09:59:20.000Z,12.4
2023-03-23T10:00:36.000Z,12.1
2023-03-23T10:01:52.000Z,12.1
2023-03-23T10:03:08.000Z,12
2023-03-23T10:04:24.000Z,11.9
2023-03-23T10:05:41.000Z,12.1
2023-03-23T10:06:56.000Z,12
2023-03-23T10:08:12.000Z,12
2023-03-23T10:09:28.000Z,12
2023-03-23T10:10:44.000Z,12.1
2023-03-23T10:12:01.000Z,11.9
2023-03-23T10:13:17.000Z,11.9
2023-03-23T10:14:33.000Z,11.9
2023-03-23T10:15:49.000Z,11.8
2023-03-23T10:17:05.000Z,12
2023-03-23T10:18:22.000Z,11.9
2023-03-23T10:19:38.000Z,12
2023-03-23T10:20:54.000Z,12.1
2023-03-23T10:22:10.000Z,12.2
2023-03-23T10:23:25.000Z,12.1
2023-03-23T10:24:41.000Z,12
2023-03-23T10:25:58.000Z,12.2
2023-03-23T10:27:14.000Z,12.2
2023-03-23T10:28:30.000Z,12.3
2023-03-23T10:29:46.000Z,12.4
2023-03-23T10:31:02.000Z,12.3
2023-03-23T10:32:19.000Z,12.5
2023-03-23T10:33:35.000Z,12.7
2023-03-23T10:34:51.000Z,12.5
2023-03-23T10:36:07.000Z,12.6
2023-03-23T10:37:23.000Z,12.6
2023-03-23T10:38:40.000Z,12.8
2023-03-23T10:39:55.000Z,12.9
2023-03-23T10:41:11.000Z,12.8
2023-03-23T10:42:27.000Z,12.9
2023-03-23T10:43:43.000Z,13.1
2023-03-23T10:45:00.000Z,13
2023-03-23T10:46:16.000Z,12.9
2023-03-23T10:47:32.000Z,13.4
2023-03-23T10:48:48.000Z,13.3
2023-03-23T10:50:04.000Z,13.5
2023-03-23T10:51:21.000Z,13.4
2023-03-23T10:52:37.000Z,13.5
2023-03-23T10:53:53.000Z,13.4
2023-03-23T10:55:09.000Z,13.4
2023-03-23T10:56:24.000Z,13.6
2023-03-23T10:57:40.000Z,13.5
2023-03-23T10:58:57.000Z,13.5
2023-03-23T11:00:13.000Z,13.6
2023-03-23T11:01:29.000Z,13.8
2023-03-23T11:02:45.000Z,13.8
2023-03-23T11:04:01.000Z,13.7
2023-03-23T11:05:18.000Z,13.7
2023-03-23T11:06:34.000Z,13.8
2023-03-23T11:07:50.000Z,13.7
2023-03-23T11:09:06.000Z,13.6
2023-03-23T11:10:22.000Z,13.6
2023-03-23T11:11:39.000Z,13.7
2023-03-23T11:12:54.000Z,13.8
2023-03-23T11:14:10.000Z,13.5
2023-03-23T11:15:26.000Z,13.5
2023-03-23T11:16:42.000Z,13.5
2023-03-23T11:17:59.000Z,13.5
2023-03-23T11:19:15.000Z,13.4
2023-03-23T11:20:31.000Z,13.3
2023-03-23T11:21:47.000Z,13.4
2023-03-23T11:23:03.000Z,13.3
2023-03-23T11:24:19.000Z,13.3
2023-03-23T11:25:36.000Z,13.3
2023-03-23T11:26:52.000Z,13.4
2023-03-23T11:28:08.000Z,13.4
2023-03-23T11:29:23.000Z,13.3
2023-03-23T11:30:39.000Z,13.4
2023-03-23T11:31:56.000Z,13.1
2023-03-23T11:33:12.000Z,13.1
2023-03-23T11:34:28.000Z,13.3
2023-03-23T11:35:44.000Z,13.3
2023-03-23T11:37:00.000Z,13.2
2023-03-23T11:38:17.000Z,13
2023-03-23T11:39:33.000Z,13.4
2023-03-23T11:40:49.000Z,13.6
2023-03-23T11:42:05.000Z,13.2
2023-03-23T11:43:21.000Z,13.3
2023-03-23T11:44:38.000Z,13.4
2023-03-23T11:45:53.000Z,13.6
2023-03-23T11:47:09.000Z,13.5
2023-03-23T11:48:25.000Z,13.7
2023-03-23T11:49:41.000Z,13.5
2023-03-23T11:50:58.000Z,13.4
2023-03-23T11:52:14.000Z,13.1
2023-03-23T11:53:30.000Z,13.2
2023-03-23T11:54:46.000Z,13
2023-03-23T11:56:02.000Z,13.3
2023-03-23T11:57:18.000Z,13.4
2023-03-23T11:58:35.000Z,13.4
2023-03-23T11:59:51.000Z,13.7
2023-03-23T12:01:07.000Z,13.2
2023-03-23T12:02:22.000Z,13.4
2023-03-23T12:03:38.000Z,13.8
2023-03-23T12:04:55.000Z,13.9
2023-03-23T12:06:11.000Z,14.1
2023-03-23T12:07:27.000Z,14.1
2023-03-23T12:08:43.000Z,13.8
2023-03-23T12:09:59.000Z,13.8
2023-03-23T12:11:16.000Z,13.8
2023-03-23T12:12:32.000Z,13.7
2023-03-23T12:13:48.000Z,14.2
2023-03-23T12:15:04.000Z,14.3
2023-03-23T12:16:20.000Z,14.4
2023-03-23T12:17:37.000Z,14.2
2023-03-23T12:18:52.000Z,14.3
2023-03-23T12:20:08.000Z,14.4
2023-03-23T12:21:24.000Z,13.9
2023-03-23T12:22:40.000Z,14
2023-03-23T12:23:57.000Z,14.1
2023-03-23T12:25:13.000Z,14.4
2023-03-23T12:26:29.000Z,14.6
2023-03-23T12:27:45.000Z,14.4
2023-03-23T12:29:01.000Z,14.1
2023-03-23T12:30:17.000Z,14.1
2023-03-23T12:31:34.000Z,14.4
2023-03-23T12:32:50.000Z,14.3
2023-03-23T12:34:06.000Z,15.1
2023-03-23T12:35:21.000Z,15.2
2023-03-23T12:36:37.000Z,15.1
2023-03-23T12:37:54.000Z,15
2023-03-23T12:39:10.000Z,15.8
2023-03-23T12:40:26.000Z,15.8
2023-03-23T12:41:42.000Z,16.1
2023-03-23T12:42:58.000Z,16.1
2023-03-23T12:44:15.000Z,16.5
2023-03-23T12:45:31.000Z,16.7
2023-03-23T12:46:47.000Z,16.3
2023-03-23T12:48:03.000Z,16.6
2023-03-23T12:49:19.000Z,17.3
2023-03-23T12:50:35.000Z,17
2023-03-23T12:51:51.000Z,16.6
2023-03-23T12:53:07.000Z,15.5
2023-03-23T12:54:23.000Z,15.3
2023-03-23T12:55:39.000Z,15
2023-03-23T12:56:55.000Z,14.9
2023-03-23T12:58:12.000Z,15.5
2023-03-23T12:59:28.000Z,15.9
2023-03-23T13:00:44.000Z,15.8
2023-03-23T13:02:00.000Z,15.1
2023-03-23T13:03:16.000Z,14.8
2023-03-23T13:04:33.000Z,14.6
2023-03-23T13:05:49.000Z,14.6
2023-03-23T13:07:05.000Z,14.5
2023-03-23T13:08:20.000Z,14.6
2023-03-23T13:09:36.000Z,14.6
2023-03-23T13:10:53.000Z,14.9
2023-03-23T13:12:09.000Z,15
2023-03-23T13:13:25.000Z,15.3
2023-03-23T13:14:41.000Z,16.1
2023-03-23T13:15:57.000Z,15.2
2023-03-23T13:17:13.000Z,15.1
2023-03-23T13:18:30.000Z,15.5
2023-03-23T13:19:46.000Z,16
2023-03-23T13:21:02.000Z,16.6
2023-03-23T13:22:18.000Z,16.6
2023-03-23T13:23:34.000Z,16.6
2023-03-23T13:24:50.000Z,15.8
2023-03-23T13:26:06.000Z,16
2023-03-23T13:27:22.000Z,16.2
2023-03-23T13:28:38.000Z,16.4
2023-03-23T13:29:54.000Z,16.3
2023-03-23T13:31:11.000Z,16.4
2023-03-23T13:32:27.000Z,16.6
2023-03-23T13:33:43.000Z,16.8
2023-03-23T13:34:59.000Z,17.3
2023-03-23T13:36:15.000Z,16.8
2023-03-23T13:37:32.000Z,16.9
2023-03-23T13:38:48.000Z,16.6
2023-03-23T13:40:04.000Z,17.2
2023-03-23T13:41:19.000Z,17
2023-03-23T13:42:35.000Z,16.8
2023-03-23T13:43:51.000Z,16.7
2023-03-23T13:45:08.000Z,16.8
2023-03-23T13:46:24.000Z,16.7
2023-03-23T13:47:40.000Z,15.9
2023-03-23T13:48:56.000Z,16.5
2023-03-23T13:50:12.000Z,16.5
2023-03-23T13:51:29.020Z,16.3
2023-03-23T13:52:45.000Z,16.8
2023-03-23T13:54:01.000Z,16.6
2023-03-23T13:55:17.000Z,17
2023-03-23T13:56:33.000Z,17.1
2023-03-23T13:57:49.000Z,16.7
2023-03-23T13:59:05.000Z,16.3
2023-03-23T14:00:21.000Z,16.5
2023-03-23T14:01:37.000Z,16.2
2023-03-23T14:02:53.000Z,16.7
2023-03-23T14:04:10.000Z,16.4
2023-03-23T14:05:26.000Z,16.1
2023-03-23T14:06:42.000Z,16.4
2023-03-23T14:07:58.000Z,15.8
2023-03-23T14:09:14.000Z,16.2
2023-03-23T14:10:30.000Z,16.6
2023-03-23T14:11:47.000Z,16.1
2023-03-23T14:13:03.000Z,16.6
2023-03-23T14:14:18.000Z,16.6
2023-03-23T14:15:34.000Z,16.7
2023-03-23T14:16:50.000Z,15.8
2023-03-23T14:18:07.000Z,15.8
2023-03-23T14:19:23.000Z,16.6
2023-03-23T14:20:39.000Z,16.1
2023-03-23T14:21:54.000Z,15.8
2023-03-23T14:23:10.000Z,16.3
2023-03-23T14:24:27.000Z,17.1
2023-03-23T14:25:43.000Z,16.8
2023-03-23T14:26:59.000Z,17.4
2023-03-23T14:28:15.000Z,17.8
2023-03-23T14:29:31.000Z,17.6
2023-03-23T14:30:48.000Z,17.6
2023-03-23T14:32:04.000Z,17.7
2023-03-23T14:33:20.000Z,16.8
2023-03-23T14:34:36.000Z,16.6
2023-03-23T14:35:52.000Z,16.3
2023-03-23T14:37:08.000Z,15.9
2023-03-23T14:38:24.000Z,15.8
2023-03-23T14:39:40.000Z,15.9
2023-03-23T14:40:56.000Z,16.1
2023-03-23T14:42:12.000Z,15.9
2023-03-23T14:43:28.000Z,16.1
2023-03-23T14:44:45.000Z,16.4
2023-03-23T14:46:01.000Z,17.2
2023-03-23T14:47:17.000Z,17.2
2023-03-23T14:48:33.000Z,16.5
2023-03-23T14:49:49.000Z,16.7
2023-03-23T14:51:06.000Z,16.7
2023-03-23T14:52:22.000Z,16.9
2023-03-23T14:53:38.000Z,16.6
2023-03-23T14:54:53.000Z,16.8
2023-03-23T14:56:09.000Z,16.7
2023-03-23T14:57:26.000Z,16.9
2023-03-23T14:58:42.000Z,16.9
2023-03-23T14:59:58.000Z,16.3
2023-03-23T15:01:14.000Z,16.2
2023-03-23T15:02:30.000Z,16.8
2023-03-23T15:03:46.000Z,17.1
2023-03-23T15:05:03.000Z,17
2023-03-23T15:06:19.000Z,17
2023-03-23T15:07:35.000Z,16.8
2023-03-23T15:08:51.000Z,17.1
2023-03-23T15:10:07.000Z,17
2023-03-23T15:11:23.000Z,16.7
2023-03-23T15:12:39.000Z,16.8
2023-03-23T15:13:55.000Z,16.9
2023-03-23T15:15:11.000Z,16.8
2023-03-23T15:16:27.000Z,17
2023-03-23T15:17:44.000Z,16.9
2023-03-23T15:19:00.000Z,17.1
2023-03-23T15:20:16.000Z,17.2
2023-03-23T15:21:32.000Z,17.3
2023-03-23T15:22:48.000Z,17
2023-03-23T15:24:04.000Z,17.1
2023-03-23T15:25:21.000Z,17.2
2023-03-23T15:26:37.000Z,17
2023-03-23T15:27:52.000Z,16.8
2023-03-23T15:29:08.000Z,17.2
2023-03-23T15:30:24.000Z,17.2
2023-03-23T15:31:41.000Z,17
2023-03-23T15:32:57.000Z,17.3
2023-03-23T15:34:13.000Z,17.5
2023-03-23T15:35:29.000Z,17.1
2023-03-23T15:36:45.000Z,17.3
2023-03-23T15:38:02.000Z,17.2
2023-03-23T15:39:18.000Z,17.7
2023-03-23T15:40:34.000Z,17.2
2023-03-23T15:41:50.000Z,17
2023-03-23T15:43:06.000Z,17.2
2023-03-23T15:44:22.000Z,17.2
2023-03-23T15:45:38.000Z,17
2023-03-23T15:46:54.000Z,17.6
2023-03-23T15:48:10.000Z,17.3
2023-03-23T15:49:26.000Z,17
2023-03-23T15:50:42.000Z,16.8
2023-03-23T15:51:59.000Z,16.9
2023-03-23T15:53:15.000Z,17
2023-03-23T15:54:31.000Z,17.1
2023-03-23T15:55:47.000Z,16.8
2023-03-23T15:57:03.000Z,16.3
2023-03-23T15:58:20.000Z,16.2
2023-03-23T15:59:36.000Z,16.4
2023-03-23T16:00:51.000Z,16.3
2023-03-23T16:02:07.000Z,16.3
2023-03-23T16:03:23.000Z,16.2
2023-03-23T16:04:40.000Z,16.1
2023-03-23T16:05:56.000Z,15.9
2023-03-23T16:07:12.000Z,16
2023-03-23T16:08:28.000Z,16
2023-03-23T16:09:44.000Z,16.2
2023-03-23T16:11:01.000Z,16
2023-03-23T16:12:17.000Z,15.8
2023-03-23T16:13:33.000Z,16
2023-03-23T16:14:49.000Z,16
2023-03-23T16:16:05.000Z,15.8
2023-03-23T16:17:20.000Z,15.7
2023-03-23T16:18:37.000Z,15.9
2023-03-23T16:19:53.000Z,16
2023-03-23T16:21:09.000Z,16.4
2023-03-23T16:22:25.000Z,16
2023-03-23T16:23:41.000Z,16
2023-03-23T16:24:58.000Z,16
2023-03-23T16:26:14.000Z,16
2023-03-23T16:27:30.000Z,16
2023-03-23T16:28:46.000Z,15.8
2023-03-23T16:30:02.000Z,15.8
2023-03-23T16:31:19.000Z,15.9
2023-03-23T16:33:50.000Z,16.1
2023-03-23T16:35:06.000Z,15.8
2023-03-23T16:36:22.000Z,15.9
2023-03-23T16:37:39.000Z,16
2023-03-23T16:38:55.000Z,16.1
2023-03-23T16:40:11.000Z,16.2
2023-03-23T16:41:27.000Z,16
2023-03-23T16:42:43.000Z,15.8
2023-03-23T16:43:59.000Z,15.8
2023-03-23T16:45:16.000Z,15.8
2023-03-23T16:46:32.000Z,16.1
2023-03-23T16:47:48.000Z,16.2
2023-03-23T16:49:04.000Z,16.1
2023-03-23T16:50:19.000Z,15.8
2023-03-23T16:51:36.000Z,16
2023-03-23T16:52:52.000Z,16.1
2023-03-23T16:54:08.000Z,16
2023-03-23T16:55:24.000Z,15.8
2023-03-23T16:56:40.000Z,15.6
2023-03-23T16:57:57.000Z,15.8
2023-03-23T16:59:13.000Z,15.7
2023-03-23T17:00:29.000Z,15.3